sensor_id;sensor_type;location;lat;lon;timestamp;temperature;humidity
70244;DHT22;57634;51.136;17.024;2023-06-24T00:00:18;21.70;78.30
70244;DHT22;57634;51.136;17.024;2023-06-24T00:03:24;21.70;78.20
70244;DHT22;57634;51.136;17.024;2023-06-24T00:06:25;21.70;78.20
70244;DHT22;57634;51.136;17.024;2023-06-24T00:09:27;21.70;78.20
70244;DHT22;57634;51.136;17.024;2023-06-24T00:12:28;21.70;78.10
70244;DHT22;57634;51.136;17.024;2023-06-24T00:15:29;21.70;77.80
70244;DHT22;57634;51.136;17.024;2023-06-24T00:18:30;21.60;77.70
70244;DHT22;57634;51.136;17.024;2023-06-24T00:21:31;21.60;77.70
70244;DHT22;57634;51.136;17.024;2023-06-24T00:24:33;21.60;77.60
70244;DHT22;57634;51.136;17.024;2023-06-24T00:27:34;21.50;77.70
70244;DHT22;57634;51.136;17.024;2023-06-24T00:31:03;21.50;77.60
70244;DHT22;57634;51.136;17.024;2023-06-24T00:34:05;21.50;77.70
70244;DHT22;57634;51.136;17.024;2023-06-24T00:37:06;21.40;77.60
70244;DHT22;57634;51.136;17.024;2023-06-24T00:40:08;21.40;77.70
70244;DHT22;57634;51.136;17.024;2023-06-24T00:43:17;21.40;77.80
70244;DHT22;57634;51.136;17.024;2023-06-24T00:46:19;21.40;77.70
70244;DHT22;57634;51.136;17.024;2023-06-24T00:49:20;21.30;77.60
70244;DHT22;57634;51.136;17.024;2023-06-24T00:52:21;21.30;77.50
70244;DHT22;57634;51.136;17.024;2023-06-24T00:55:23;21.30;77.30
70244;DHT22;57634;51.136;17.024;2023-06-24T00:58:24;21.20;77.30
70244;DHT22;57634;51.136;17.024;2023-06-24T01:01:25;21.20;77.40
70244;DHT22;57634;51.136;17.024;2023-06-24T01:04:26;21.20;77.40
70244;DHT22;57634;51.136;17.024;2023-06-24T01:07:29;21.10;77.30
70244;DHT22;57634;51.136;17.024;2023-06-24T01:10:56;21.00;77.30
70244;DHT22;57634;51.136;17.024;2023-06-24T01:13:57;21.10;77.40
70244;DHT22;57634;51.136;17.024;2023-06-24T01:17:12;21.00;77.50
70244;DHT22;57634;51.136;17.024;2023-06-24T01:20:21;21.00;77.70
70244;DHT22;57634;51.136;17.024;2023-06-24T01:33:44;20.80;77.00
70244;DHT22;57634;51.136;17.024;2023-06-24T01:36:58;20.70;76.70
70244;DHT22;57634;51.136;17.024;2023-06-24T01:43:40;20.50;75.80
70244;DHT22;57634;51.136;17.024;2023-06-24T01:46:46;20.50;75.60
70244;DHT22;57634;51.136;17.024;2023-06-24T01:49:52;20.30;75.60
70244;DHT22;57634;51.136;17.024;2023-06-24T01:52:56;20.20;75.50
70244;DHT22;57634;51.136;17.024;2023-06-24T01:55:59;20.10;75.50
70244;DHT22;57634;51.136;17.024;2023-06-24T01:59:02;20.00;75.40
70244;DHT22;57634;51.136;17.024;2023-06-24T02:02:06;19.90;75.30
70244;DHT22;57634;51.136;17.024;2023-06-24T02:05:09;19.80;75.30
70244;DHT22;57634;51.136;17.024;2023-06-24T02:08:11;19.70;75.40
70244;DHT22;57634;51.136;17.024;2023-06-24T02:11:41;19.60;75.40
70244;DHT22;57634;51.136;17.024;2023-06-24T02:14:44;19.60;75.50
70244;DHT22;57634;51.136;17.024;2023-06-24T02:17:48;19.50;75.60
70244;DHT22;57634;51.136;17.024;2023-06-24T02:20:52;19.50;75.60
70244;DHT22;57634;51.136;17.024;2023-06-24T02:23:54;19.40;75.80
70244;DHT22;57634;51.136;17.024;2023-06-24T02:26:57;19.40;76.10
70244;DHT22;57634;51.136;17.024;2023-06-24T02:29:59;19.40;76.10
70244;DHT22;57634;51.136;17.024;2023-06-24T02:33:01;19.30;76.20
70244;DHT22;57634;51.136;17.024;2023-06-24T02:36:02;19.30;76.20
70244;DHT22;57634;51.136;17.024;2023-06-24T02:39:04;19.30;76.40
70244;DHT22;57634;51.136;17.024;2023-06-24T02:42:05;19.20;76.30
70244;DHT22;57634;51.136;17.024;2023-06-24T02:45:07;19.20;76.30
70244;DHT22;57634;51.136;17.024;2023-06-24T02:48:36;19.20;76.70
70244;DHT22;57634;51.136;17.024;2023-06-24T02:51:39;19.10;76.40
70244;DHT22;57634;51.136;17.024;2023-06-24T02:54:41;19.10;76.10
70244;DHT22;57634;51.136;17.024;2023-06-24T02:57:42;19.10;76.10
70244;DHT22;57634;51.136;17.024;2023-06-24T03:00:45;19.00;75.90
70244;DHT22;57634;51.136;17.024;2023-06-24T03:03:47;19.00;76.10
70244;DHT22;57634;51.136;17.024;2023-06-24T03:06:50;18.90;76.10
70244;DHT22;57634;51.136;17.024;2023-06-24T03:09:53;18.90;76.40
70244;DHT22;57634;51.136;17.024;2023-06-24T03:12:54;18.90;76.50
70244;DHT22;57634;51.136;17.024;2023-06-24T03:15:55;18.80;76.50
70244;DHT22;57634;51.136;17.024;2023-06-24T03:18:56;18.80;76.60
70244;DHT22;57634;51.136;17.024;2023-06-24T03:21:57;18.80;76.60
70244;DHT22;57634;51.136;17.024;2023-06-24T03:24:59;18.70;76.70
70244;DHT22;57634;51.136;17.024;2023-06-24T03:28:00;18.70;77.00
70244;DHT22;57634;51.136;17.024;2023-06-24T03:31:27;18.70;77.20
70244;DHT22;57634;51.136;17.024;2023-06-24T03:34:28;18.60;77.60
70244;DHT22;57634;51.136;17.024;2023-06-24T03:37:30;18.60;77.90
70244;DHT22;57634;51.136;17.024;2023-06-24T03:40:31;18.60;78.20
70244;DHT22;57634;51.136;17.024;2023-06-24T03:43:32;18.50;78.20
70244;DHT22;57634;51.136;17.024;2023-06-24T03:46:34;18.50;78.40
70244;DHT22;57634;51.136;17.024;2023-06-24T03:49:35;18.50;78.80
70244;DHT22;57634;51.136;17.024;2023-06-24T03:52:36;18.40;78.90
70244;DHT22;57634;51.136;17.024;2023-06-24T03:55:38;18.40;79.00
70244;DHT22;57634;51.136;17.024;2023-06-24T03:58:39;18.40;79.10
70244;DHT22;57634;51.136;17.024;2023-06-24T04:01:40;18.40;79.10
70244;DHT22;57634;51.136;17.024;2023-06-24T04:04:41;18.40;79.00
70244;DHT22;57634;51.136;17.024;2023-06-24T04:07:42;18.40;79.20
70244;DHT22;57634;51.136;17.024;2023-06-24T04:10:47;18.40;79.10
70244;DHT22;57634;51.136;17.024;2023-06-24T04:14:15;18.40;78.90
70244;DHT22;57634;51.136;17.024;2023-06-24T04:17:16;18.40;78.90
70244;DHT22;57634;51.136;17.024;2023-06-24T04:20:17;18.30;79.00
70244;DHT22;57634;51.136;17.024;2023-06-24T04:23:18;18.30;79.10
70244;DHT22;57634;51.136;17.024;2023-06-24T04:26:19;18.30;79.10
70244;DHT22;57634;51.136;17.024;2023-06-24T04:29:20;18.30;79.00
70244;DHT22;57634;51.136;17.024;2023-06-24T04:32:22;18.40;78.80
70244;DHT22;57634;51.136;17.024;2023-06-24T04:35:24;18.40;78.60
70244;DHT22;57634;51.136;17.024;2023-06-24T04:38:25;18.30;78.30
70244;DHT22;57634;51.136;17.024;2023-06-24T04:41:27;18.30;78.50
70244;DHT22;57634;51.136;17.024;2023-06-24T04:44:28;18.20;78.50
70244;DHT22;57634;51.136;17.024;2023-06-24T04:47:29;18.20;78.80
70244;DHT22;57634;51.136;17.024;2023-06-24T04:50:31;18.20;78.80
70244;DHT22;57634;51.136;17.024;2023-06-24T04:53:32;18.20;78.90
70244;DHT22;57634;51.136;17.024;2023-06-24T04:57:08;18.20;79.00
70244;DHT22;57634;51.136;17.024;2023-06-24T05:00:09;18.10;79.20
70244;DHT22;57634;51.136;17.024;2023-06-24T05:03:11;18.20;79.20
70244;DHT22;57634;51.136;17.024;2023-06-24T05:06:12;18.20;79.00
70244;DHT22;57634;51.136;17.024;2023-06-24T05:09:13;18.20;79.00
70244;DHT22;57634;51.136;17.024;2023-06-24T05:12:15;18.20;79.00
70244;DHT22;57634;51.136;17.024;2023-06-24T05:15:16;18.20;79.20
70244;DHT22;57634;51.136;17.024;2023-06-24T05:18:17;18.20;79.20
70244;DHT22;57634;51.136;17.024;2023-06-24T05:21:18;18.20;79.20
70244;DHT22;57634;51.136;17.024;2023-06-24T05:24:19;18.30;79.10
70244;DHT22;57634;51.136;17.024;2023-06-24T05:27:21;18.30;78.90
70244;DHT22;57634;51.136;17.024;2023-06-24T05:30:22;18.30;78.80
70244;DHT22;57634;51.136;17.024;2023-06-24T05:33:23;18.40;78.70
70244;DHT22;57634;51.136;17.024;2023-06-24T05:36:25;18.50;78.60
70244;DHT22;57634;51.136;17.024;2023-06-24T05:39:51;18.50;78.40
70244;DHT22;57634;51.136;17.024;2023-06-24T05:42:53;18.60;78.30
70244;DHT22;57634;51.136;17.024;2023-06-24T05:45:54;18.60;78.00
70244;DHT22;57634;51.136;17.024;2023-06-24T05:48:56;18.60;77.80
70244;DHT22;57634;51.136;17.024;2023-06-24T05:51:58;18.70;77.60
70244;DHT22;57634;51.136;17.024;2023-06-24T05:54:59;18.80;77.50
70244;DHT22;57634;51.136;17.024;2023-06-24T05:58:00;18.80;77.20
70244;DHT22;57634;51.136;17.024;2023-06-24T06:01:01;18.90;77.20
70244;DHT22;57634;51.136;17.024;2023-06-24T06:04:03;19.00;77.00
70244;DHT22;57634;51.136;17.024;2023-06-24T06:07:04;19.00;76.80
70244;DHT22;57634;51.136;17.024;2023-06-24T06:10:07;19.10;76.80
70244;DHT22;57634;51.136;17.024;2023-06-24T06:13:08;19.20;76.70
70244;DHT22;57634;51.136;17.024;2023-06-24T06:16:12;19.20;76.50
70244;DHT22;57634;51.136;17.024;2023-06-24T06:19:14;19.30;76.10
70244;DHT22;57634;51.136;17.024;2023-06-24T06:22:41;19.30;76.00
70244;DHT22;57634;51.136;17.024;2023-06-24T06:25:43;19.30;76.00
70244;DHT22;57634;51.136;17.024;2023-06-24T06:28:44;19.30;76.10
70244;DHT22;57634;51.136;17.024;2023-06-24T06:31:48;19.30;75.80
70244;DHT22;57634;51.136;17.024;2023-06-24T06:34:49;19.30;75.80
70244;DHT22;57634;51.136;17.024;2023-06-24T06:37:51;19.30;75.80
70244;DHT22;57634;51.136;17.024;2023-06-24T06:40:55;19.20;75.80
70244;DHT22;57634;51.136;17.024;2023-06-24T06:43:56;19.20;76.10
70244;DHT22;57634;51.136;17.024;2023-06-24T06:46:58;19.00;76.20
70244;DHT22;57634;51.136;17.024;2023-06-24T06:49:59;18.90;76.70
70244;DHT22;57634;51.136;17.024;2023-06-24T06:53:00;18.90;77.20
70244;DHT22;57634;51.136;17.024;2023-06-24T06:56:01;18.90;77.50
70244;DHT22;57634;51.136;17.024;2023-06-24T06:59:02;18.90;77.40
70244;DHT22;57634;51.136;17.024;2023-06-24T07:02:32;19.00;77.90
70244;DHT22;57634;51.136;17.024;2023-06-24T07:05:33;19.10;77.70
70244;DHT22;57634;51.136;17.024;2023-06-24T07:08:35;19.20;77.60
70244;DHT22;57634;51.136;17.024;2023-06-24T07:11:36;19.20;77.60
70244;DHT22;57634;51.136;17.024;2023-06-24T07:14:37;19.20;77.40
70244;DHT22;57634;51.136;17.024;2023-06-24T07:17:40;19.30;77.40
70244;DHT22;57634;51.136;17.024;2023-06-24T07:20:42;19.20;77.10
70244;DHT22;57634;51.136;17.024;2023-06-24T07:23:43;19.20;77.40
70244;DHT22;57634;51.136;17.024;2023-06-24T07:26:45;19.30;77.50
70244;DHT22;57634;51.136;17.024;2023-06-24T07:29:46;19.30;77.00
70244;DHT22;57634;51.136;17.024;2023-06-24T07:32:47;19.40;77.10
70244;DHT22;57634;51.136;17.024;2023-06-24T07:35:48;19.40;77.00
70244;DHT22;57634;51.136;17.024;2023-06-24T07:38:50;19.40;77.00
70244;DHT22;57634;51.136;17.024;2023-06-24T07:41:51;19.40;77.10
70244;DHT22;57634;51.136;17.024;2023-06-24T07:45:21;19.50;77.20
70244;DHT22;57634;51.136;17.024;2023-06-24T07:48:22;19.50;77.20
70244;DHT22;57634;51.136;17.024;2023-06-24T07:51:23;19.60;77.10
70244;DHT22;57634;51.136;17.024;2023-06-24T07:54:25;19.70;77.10
70244;DHT22;57634;51.136;17.024;2023-06-24T07:57:26;19.70;77.30
70244;DHT22;57634;51.136;17.024;2023-06-24T08:00:28;19.90;77.10
70244;DHT22;57634;51.136;17.024;2023-06-24T08:03:30;19.90;77.00
70244;DHT22;57634;51.136;17.024;2023-06-24T08:06:31;20.00;76.80
70244;DHT22;57634;51.136;17.024;2023-06-24T08:09:32;20.20;76.30
70244;DHT22;57634;51.136;17.024;2023-06-24T08:12:33;20.30;76.00
70244;DHT22;57634;51.136;17.024;2023-06-24T08:15:34;20.50;76.00
70244;DHT22;57634;51.136;17.024;2023-06-24T08:18:35;20.60;75.60
70244;DHT22;57634;51.136;17.024;2023-06-24T08:21:37;20.80;75.20
70244;DHT22;57634;51.136;17.024;2023-06-24T08:24:39;20.90;74.10
70244;DHT22;57634;51.136;17.024;2023-06-24T08:28:10;21.00;73.70
70244;DHT22;57634;51.136;17.024;2023-06-24T08:31:12;21.10;73.90
70244;DHT22;57634;51.136;17.024;2023-06-24T08:34:13;21.20;73.60
70244;DHT22;57634;51.136;17.024;2023-06-24T08:37:14;21.40;73.20
70244;DHT22;57634;51.136;17.024;2023-06-24T08:40:17;21.50;72.50
70244;DHT22;57634;51.136;17.024;2023-06-24T08:43:18;21.60;71.30
70244;DHT22;57634;51.136;17.024;2023-06-24T08:46:24;21.70;71.20
70244;DHT22;57634;51.136;17.024;2023-06-24T08:49:30;21.70;70.90
70244;DHT22;57634;51.136;17.024;2023-06-24T08:52:35;21.70;70.30
70244;DHT22;57634;51.136;17.024;2023-06-24T08:55:40;21.70;70.00
70244;DHT22;57634;51.136;17.024;2023-06-24T08:59:10;21.70;69.70
70244;DHT22;57634;51.136;17.024;2023-06-24T09:02:11;21.70;70.10
70244;DHT22;57634;51.136;17.024;2023-06-24T09:05:14;21.70;69.60
70244;DHT22;57634;51.136;17.024;2023-06-24T09:08:15;21.60;69.40
70244;DHT22;57634;51.136;17.024;2023-06-24T09:11:22;21.50;69.40
70244;DHT22;57634;51.136;17.024;2023-06-24T09:14:25;21.50;69.60
70244;DHT22;57634;51.136;17.024;2023-06-24T09:17:26;21.40;69.60
70244;DHT22;57634;51.136;17.024;2023-06-24T09:20:30;21.30;69.70
70244;DHT22;57634;51.136;17.024;2023-06-24T09:23:36;21.30;70.20
70244;DHT22;57634;51.136;17.024;2023-06-24T09:26:38;21.30;70.50
70244;DHT22;57634;51.136;17.024;2023-06-24T09:29:40;21.30;70.80
70244;DHT22;57634;51.136;17.024;2023-06-24T09:33:11;21.40;70.60
70244;DHT22;57634;51.136;17.024;2023-06-24T09:36:16;21.50;70.50
70244;DHT22;57634;51.136;17.024;2023-06-24T09:39:17;21.50;70.20
70244;DHT22;57634;51.136;17.024;2023-06-24T09:42:21;21.70;70.20
70244;DHT22;57634;51.136;17.024;2023-06-24T09:45:27;21.90;69.90
70244;DHT22;57634;51.136;17.024;2023-06-24T09:48:29;22.00;69.80
70244;DHT22;57634;51.136;17.024;2023-06-24T09:51:33;22.20;68.90
70244;DHT22;57634;51.136;17.024;2023-06-24T09:54:38;22.40;68.50
70244;DHT22;57634;51.136;17.024;2023-06-24T09:57:41;22.50;68.10
70244;DHT22;57634;51.136;17.024;2023-06-24T10:01:09;22.50;67.40
70244;DHT22;57634;51.136;17.024;2023-06-24T10:04:16;22.60;67.60
70244;DHT22;57634;51.136;17.024;2023-06-24T10:07:17;22.60;67.10
70244;DHT22;57634;51.136;17.024;2023-06-24T10:10:19;22.60;67.10
70244;DHT22;57634;51.136;17.024;2023-06-24T10:13:20;22.70;66.60
70244;DHT22;57634;51.136;17.024;2023-06-24T10:16:22;22.80;66.60
70244;DHT22;57634;51.136;17.024;2023-06-24T10:19:23;22.90;66.30
70244;DHT22;57634;51.136;17.024;2023-06-24T10:22:24;23.10;65.30
70244;DHT22;57634;51.136;17.024;2023-06-24T10:25:37;23.30;64.10
70244;DHT22;57634;51.136;17.024;2023-06-24T10:32:19;23.40;63.50
70244;DHT22;57634;51.136;17.024;2023-06-24T10:35:23;23.50;63.20
70244;DHT22;57634;51.136;17.024;2023-06-24T10:38:30;23.70;62.40
70244;DHT22;57634;51.136;17.024;2023-06-24T10:41:32;23.70;62.30
70244;DHT22;57634;51.136;17.024;2023-06-24T10:47:50;24.10;62.10
70244;DHT22;57634;51.136;17.024;2023-06-24T10:50:54;24.40;61.40
70244;DHT22;57634;51.136;17.024;2023-06-24T10:53:55;24.70;60.80
70244;DHT22;57634;51.136;17.024;2023-06-24T10:57:24;25.00;60.20
70244;DHT22;57634;51.136;17.024;2023-06-24T11:00:26;25.40;59.40
70244;DHT22;57634;51.136;17.024;2023-06-24T11:03:33;25.80;57.80
70244;DHT22;57634;51.136;17.024;2023-06-24T11:06:35;26.10;57.00
70244;DHT22;57634;51.136;17.024;2023-06-24T11:09:36;26.40;55.20
70244;DHT22;57634;51.136;17.024;2023-06-24T11:12:39;26.60;54.30
70244;DHT22;57634;51.136;17.024;2023-06-24T11:15:40;26.80;54.10
70244;DHT22;57634;51.136;17.024;2023-06-24T11:18:43;27.00;53.30
70244;DHT22;57634;51.136;17.024;2023-06-24T11:21:44;27.10;52.90
70244;DHT22;57634;51.136;17.024;2023-06-24T11:24:45;27.10;52.00
70244;DHT22;57634;51.136;17.024;2023-06-24T11:27:46;27.00;51.90
70244;DHT22;57634;51.136;17.024;2023-06-24T11:30:47;27.00;51.90
70244;DHT22;57634;51.136;17.024;2023-06-24T11:34:16;26.90;51.70
70244;DHT22;57634;51.136;17.024;2023-06-24T11:37:18;26.90;51.50
70244;DHT22;57634;51.136;17.024;2023-06-24T11:40:20;26.80;51.30
70244;DHT22;57634;51.136;17.024;2023-06-24T11:43:25;26.70;51.20
70244;DHT22;57634;51.136;17.024;2023-06-24T11:46:28;26.50;51.20
70244;DHT22;57634;51.136;17.024;2023-06-24T11:52:50;26.30;51.40
70244;DHT22;57634;51.136;17.024;2023-06-24T11:55:55;26.20;51.80
70244;DHT22;57634;51.136;17.024;2023-06-24T11:59:23;26.20;52.00
70244;DHT22;57634;51.136;17.024;2023-06-24T12:02:28;26.40;51.90
70244;DHT22;57634;51.136;17.024;2023-06-24T12:05:31;26.60;51.90
70244;DHT22;57634;51.136;17.024;2023-06-24T12:08:32;26.70;51.20
70244;DHT22;57634;51.136;17.024;2023-06-24T12:11:33;26.80;51.00
70244;DHT22;57634;51.136;17.024;2023-06-24T12:14:34;26.80;50.70
70244;DHT22;57634;51.136;17.024;2023-06-24T12:17:35;26.80;50.40
70244;DHT22;57634;51.136;17.024;2023-06-24T12:20:36;26.80;50.60
70244;DHT22;57634;51.136;17.024;2023-06-24T12:23:37;26.70;50.50
70244;DHT22;57634;51.136;17.024;2023-06-24T12:26:39;26.70;50.60
70244;DHT22;57634;51.136;17.024;2023-06-24T12:29:40;26.60;50.50
70244;DHT22;57634;51.136;17.024;2023-06-24T12:32:43;26.60;50.50
70244;DHT22;57634;51.136;17.024;2023-06-24T12:35:45;26.60;49.90
70244;DHT22;57634;51.136;17.024;2023-06-24T12:39:13;26.60;49.70
70244;DHT22;57634;51.136;17.024;2023-06-24T12:42:14;26.70;49.70
70244;DHT22;57634;51.136;17.024;2023-06-24T12:45:16;26.70;49.20
70244;DHT22;57634;51.136;17.024;2023-06-24T12:48:17;26.80;48.70
70244;DHT22;57634;51.136;17.024;2023-06-24T12:51:19;26.80;48.70
70244;DHT22;57634;51.136;17.024;2023-06-24T12:54:20;26.80;48.50
70244;DHT22;57634;51.136;17.024;2023-06-24T12:57:21;26.80;48.00
70244;DHT22;57634;51.136;17.024;2023-06-24T13:00:24;26.90;48.30
70244;DHT22;57634;51.136;17.024;2023-06-24T13:03:25;26.90;48.10
70244;DHT22;57634;51.136;17.024;2023-06-24T13:06:26;26.80;48.20
70244;DHT22;57634;51.136;17.024;2023-06-24T13:09:27;26.80;48.50
70244;DHT22;57634;51.136;17.024;2023-06-24T13:13:41;26.90;48.40
70244;DHT22;57634;51.136;17.024;2023-06-24T13:16:42;27.00;47.80
70244;DHT22;57634;51.136;17.024;2023-06-24T13:19:43;27.10;46.70
70244;DHT22;57634;51.136;17.024;2023-06-24T13:22:44;27.10;46.40
70244;DHT22;57634;51.136;17.024;2023-06-24T13:25:46;27.00;46.30
70244;DHT22;57634;51.136;17.024;2023-06-24T13:28:48;27.10;46.40
70244;DHT22;57634;51.136;17.024;2023-06-24T13:31:50;27.20;46.30
70244;DHT22;57634;51.136;17.024;2023-06-24T13:34:51;27.20;46.30
70244;DHT22;57634;51.136;17.024;2023-06-24T13:37:53;27.10;46.20
70244;DHT22;57634;51.136;17.024;2023-06-24T13:40:54;27.00;46.20
70244;DHT22;57634;51.136;17.024;2023-06-24T13:43:56;27.00;46.20
70244;DHT22;57634;51.136;17.024;2023-06-24T13:46:58;27.00;46.20
70244;DHT22;57634;51.136;17.024;2023-06-24T13:49:59;26.90;45.90
70244;DHT22;57634;51.136;17.024;2023-06-24T13:53:29;26.80;45.90
70244;DHT22;57634;51.136;17.024;2023-06-24T13:56:30;26.80;45.70
70244;DHT22;57634;51.136;17.024;2023-06-24T13:59:31;26.90;45.40
70244;DHT22;57634;51.136;17.024;2023-06-24T14:02:32;27.00;45.20
70244;DHT22;57634;51.136;17.024;2023-06-24T14:05:34;27.10;45.00
70244;DHT22;57634;51.136;17.024;2023-06-24T14:08:35;27.20;44.50
70244;DHT22;57634;51.136;17.024;2023-06-24T14:11:37;27.30;43.60
70244;DHT22;57634;51.136;17.024;2023-06-24T14:14:38;27.30;43.40
70244;DHT22;57634;51.136;17.024;2023-06-24T14:17:39;27.30;43.40
70244;DHT22;57634;51.136;17.024;2023-06-24T14:20:41;27.30;43.20
70244;DHT22;57634;51.136;17.024;2023-06-24T14:23:42;27.30;42.50
70244;DHT22;57634;51.136;17.024;2023-06-24T14:26:44;27.30;42.50
70244;DHT22;57634;51.136;17.024;2023-06-24T14:29:49;27.30;42.70
70244;DHT22;57634;51.136;17.024;2023-06-24T14:32:51;27.40;42.80
70244;DHT22;57634;51.136;17.024;2023-06-24T14:36:18;27.40;42.80
70244;DHT22;57634;51.136;17.024;2023-06-24T14:39:19;27.40;42.70
70244;DHT22;57634;51.136;17.024;2023-06-24T14:42:20;27.30;42.80
70244;DHT22;57634;51.136;17.024;2023-06-24T14:45:22;27.20;43.00
70244;DHT22;57634;51.136;17.024;2023-06-24T14:48:23;27.10;43.20
70244;DHT22;57634;51.136;17.024;2023-06-24T14:51:24;27.10;43.50
70244;DHT22;57634;51.136;17.024;2023-06-24T14:54:26;27.10;43.80
70244;DHT22;57634;51.136;17.024;2023-06-24T14:57:27;27.00;44.00
70244;DHT22;57634;51.136;17.024;2023-06-24T15:00:28;27.10;44.10
70244;DHT22;57634;51.136;17.024;2023-06-24T15:03:30;27.00;43.90
70244;DHT22;57634;51.136;17.024;2023-06-24T15:06:32;27.00;43.80
70244;DHT22;57634;51.136;17.024;2023-06-24T15:09:33;26.90;44.10
70244;DHT22;57634;51.136;17.024;2023-06-24T15:12:35;26.80;44.20
70244;DHT22;57634;51.136;17.024;2023-06-24T15:15:36;26.70;44.40
70244;DHT22;57634;51.136;17.024;2023-06-24T15:19:05;26.60;44.40
70244;DHT22;57634;51.136;17.024;2023-06-24T15:22:06;26.50;44.70
70244;DHT22;57634;51.136;17.024;2023-06-24T15:25:08;26.50;45.00
70244;DHT22;57634;51.136;17.024;2023-06-24T15:28:09;26.50;45.00
70244;DHT22;57634;51.136;17.024;2023-06-24T15:31:11;26.50;45.00
70244;DHT22;57634;51.136;17.024;2023-06-24T15:34:13;26.50;44.90
70244;DHT22;57634;51.136;17.024;2023-06-24T15:37:14;26.70;44.90
70244;DHT22;57634;51.136;17.024;2023-06-24T15:40:15;26.70;44.90
70244;DHT22;57634;51.136;17.024;2023-06-24T15:43:17;26.70;45.00
70244;DHT22;57634;51.136;17.024;2023-06-24T15:46:18;26.80;44.70
70244;DHT22;57634;51.136;17.024;2023-06-24T15:49:19;26.90;44.40
70244;DHT22;57634;51.136;17.024;2023-06-24T15:52:21;26.80;44.00
70244;DHT22;57634;51.136;17.024;2023-06-24T15:55:22;26.80;43.60
70244;DHT22;57634;51.136;17.024;2023-06-24T15:58:24;26.80;43.50
70244;DHT22;57634;51.136;17.024;2023-06-24T16:01:52;26.70;43.50
70244;DHT22;57634;51.136;17.024;2023-06-24T16:04:53;26.60;43.70
70244;DHT22;57634;51.136;17.024;2023-06-24T16:07:55;26.50;43.80
70244;DHT22;57634;51.136;17.024;2023-06-24T16:10:56;26.50;44.00
70244;DHT22;57634;51.136;17.024;2023-06-24T16:14:01;26.40;44.10
70244;DHT22;57634;51.136;17.024;2023-06-24T16:17:02;26.30;44.20
70244;DHT22;57634;51.136;17.024;2023-06-24T16:20:05;26.30;44.70
70244;DHT22;57634;51.136;17.024;2023-06-24T16:23:07;26.20;44.70
70244;DHT22;57634;51.136;17.024;2023-06-24T16:26:09;26.10;44.90
70244;DHT22;57634;51.136;17.024;2023-06-24T16:29:10;26.00;44.80
70244;DHT22;57634;51.136;17.024;2023-06-24T16:32:11;26.00;44.90
70244;DHT22;57634;51.136;17.024;2023-06-24T16:35:13;25.90;44.90
70244;DHT22;57634;51.136;17.024;2023-06-24T16:38:14;25.80;45.10
70244;DHT22;57634;51.136;17.024;2023-06-24T16:41:44;25.80;45.10
70244;DHT22;57634;51.136;17.024;2023-06-24T16:44:45;25.70;45.40
70244;DHT22;57634;51.136;17.024;2023-06-24T16:47:48;25.60;45.60
70244;DHT22;57634;51.136;17.024;2023-06-24T16:50:49;25.60;45.60
70244;DHT22;57634;51.136;17.024;2023-06-24T16:53:51;25.60;45.60
70244;DHT22;57634;51.136;17.024;2023-06-24T16:56:52;25.50;45.80
70244;DHT22;57634;51.136;17.024;2023-06-24T16:59:54;25.40;46.00
70244;DHT22;57634;51.136;17.024;2023-06-24T17:02:55;25.40;46.40
70244;DHT22;57634;51.136;17.024;2023-06-24T17:05:56;25.30;46.60
70244;DHT22;57634;51.136;17.024;2023-06-24T17:08:58;25.30;46.80
70244;DHT22;57634;51.136;17.024;2023-06-24T17:12:00;25.20;47.00
70244;DHT22;57634;51.136;17.024;2023-06-24T17:15:03;25.10;47.20
70244;DHT22;57634;51.136;17.024;2023-06-24T17:18:06;25.00;47.60
70244;DHT22;57634;51.136;17.024;2023-06-24T17:21:33;25.00;48.10
70244;DHT22;57634;51.136;17.024;2023-06-24T17:24:37;24.90;48.60
70244;DHT22;57634;51.136;17.024;2023-06-24T17:27:38;24.80;49.00
70244;DHT22;57634;51.136;17.024;2023-06-24T17:30:39;24.70;49.30
70244;DHT22;57634;51.136;17.024;2023-06-24T17:33:40;24.70;49.70
70244;DHT22;57634;51.136;17.024;2023-06-24T17:36:42;24.70;50.00
70244;DHT22;57634;51.136;17.024;2023-06-24T17:39:43;24.70;50.30
70244;DHT22;57634;51.136;17.024;2023-06-24T17:42:44;24.70;50.60
70244;DHT22;57634;51.136;17.024;2023-06-24T17:45:46;24.60;50.70
70244;DHT22;57634;51.136;17.024;2023-06-24T17:48:47;24.60;50.90
70244;DHT22;57634;51.136;17.024;2023-06-24T17:51:48;24.60;50.90
70244;DHT22;57634;51.136;17.024;2023-06-24T17:54:50;24.50;51.00
70244;DHT22;57634;51.136;17.024;2023-06-24T17:57:51;24.50;51.20
70244;DHT22;57634;51.136;17.024;2023-06-24T18:00:52;24.50;51.50
70244;DHT22;57634;51.136;17.024;2023-06-24T18:04:21;24.40;51.60
70244;DHT22;57634;51.136;17.024;2023-06-24T18:07:23;24.40;52.10
70244;DHT22;57634;51.136;17.024;2023-06-24T18:10:24;24.40;52.30
70244;DHT22;57634;51.136;17.024;2023-06-24T18:13:26;24.30;52.60
70244;DHT22;57634;51.136;17.024;2023-06-24T18:16:27;24.30;52.80
70244;DHT22;57634;51.136;17.024;2023-06-24T18:19:28;24.20;53.10
70244;DHT22;57634;51.136;17.024;2023-06-24T18:22:30;24.20;53.40
70244;DHT22;57634;51.136;17.024;2023-06-24T18:25:31;24.10;53.60
70244;DHT22;57634;51.136;17.024;2023-06-24T18:28:32;24.00;53.70
70244;DHT22;57634;51.136;17.024;2023-06-24T18:31:33;23.90;54.00
70244;DHT22;57634;51.136;17.024;2023-06-24T18:34:34;23.90;54.20
70244;DHT22;57634;51.136;17.024;2023-06-24T18:37:36;23.80;54.50
70244;DHT22;57634;51.136;17.024;2023-06-24T18:40:38;23.70;54.70
70244;DHT22;57634;51.136;17.024;2023-06-24T18:43:40;23.70;55.00
70244;DHT22;57634;51.136;17.024;2023-06-24T18:47:09;23.60;55.20
70244;DHT22;57634;51.136;17.024;2023-06-24T18:50:11;23.50;55.70
70244;DHT22;57634;51.136;17.024;2023-06-24T18:53:12;23.40;55.90
70244;DHT22;57634;51.136;17.024;2023-06-24T18:56:13;23.30;56.10
70244;DHT22;57634;51.136;17.024;2023-06-24T18:59:15;23.30;56.30
70244;DHT22;57634;51.136;17.024;2023-06-24T19:02:16;23.20;56.50
70244;DHT22;57634;51.136;17.024;2023-06-24T19:05:17;23.10;56.70
70244;DHT22;57634;51.136;17.024;2023-06-24T19:08:19;23.00;56.90
70244;DHT22;57634;51.136;17.024;2023-06-24T19:11:20;22.90;57.10
70244;DHT22;57634;51.136;17.024;2023-06-24T19:14:23;22.90;57.50
70244;DHT22;57634;51.136;17.024;2023-06-24T19:17:24;22.80;57.70
70244;DHT22;57634;51.136;17.024;2023-06-24T19:20:26;22.80;57.90
70244;DHT22;57634;51.136;17.024;2023-06-24T19:23:27;22.80;57.90
70244;DHT22;57634;51.136;17.024;2023-06-24T19:26:28;22.80;58.00